createdAt,value
2023-03-21T00:00:44.293Z,97737.88
2023-03-21T00:03:12.431Z,97748.09
2023-03-21T00:05:52.243Z,97744.00
2023-03-21T00:08:24.624Z,97740.16
2023-03-21T00:11:00.950Z,97749.34
2023-03-21T00:13:33.133Z,97745.50
2023-03-21T00:16:15.761Z,97749.09
2023-03-21T00:18:52.735Z,97748.06
2023-03-21T00:24:15.652Z,97751.13
2023-03-21T00:26:42.659Z,97752.13
2023-03-21T00:29:10.669Z,97745.25
2023-03-21T00:31:39.800Z,97745.78
2023-03-21T00:34:06.756Z,97745.00
2023-03-21T00:36:34.418Z,97741.66
2023-03-21T00:39:01.609Z,97741.91
2023-03-21T00:41:42.071Z,97735.03
2023-03-21T00:44:11.879Z,97734.03
2023-03-21T00:46:51.331Z,97727.16
2023-03-21T00:49:25.560Z,97730.44
2023-03-21T00:51:53.299Z,97729.44
2023-03-21T00:54:20.411Z,97724.56
2023-03-21T00:56:48.361Z,97719.47
2023-03-21T00:59:15.656Z,97720.00
2023-03-21T01:01:44.068Z,97709.75
2023-03-21T01:04:14.697Z,97713.88
2023-03-21T01:06:43.829Z,97714.63
2023-03-21T01:09:20.976Z,97707.75
2023-03-21T01:11:49.218Z,97709.00
2023-03-21T01:14:22.999Z,97712.06
2023-03-21T01:16:53.114Z,97716.91
2023-03-21T01:19:29.206Z,97713.81
2023-03-21T01:22:00.354Z,97715.84
2023-03-21T01:24:27.372Z,97708.97
2023-03-21T01:26:54.618Z,97718.41
2023-03-21T01:29:21.834Z,97702.34
2023-03-21T01:31:49.041Z,97712.56
2023-03-21T01:34:16.366Z,97711.81
2023-03-21T01:36:44.221Z,97710.53
2023-03-21T01:39:16.306Z,97699.56
2023-03-21T01:41:44.736Z,97692.19
2023-03-21T01:44:20.942Z,97696.00
2023-03-21T01:47:12.481Z,97699.06
2023-03-21T01:49:51.526Z,97692.72
2023-03-21T01:52:36.924Z,97692.72
2023-03-21T01:55:12.579Z,97683.53
2023-03-21T01:58:04.734Z,97685.56
2023-03-21T02:00:41.699Z,97677.41
2023-03-21T02:03:35.078Z,97691.66
2023-03-21T02:06:20.409Z,97681.72
2023-03-21T02:08:50.173Z,97674.59
2023-03-21T02:11:17.520Z,97673.06
2023-03-21T02:13:44.701Z,97674.81
2023-03-21T02:16:26.488Z,97673.53
2023-03-21T02:19:32.879Z,97671.75
2023-03-21T02:22:32.663Z,97656.72
2023-03-21T02:25:31.355Z,97659.78
2023-03-21T02:28:24.965Z,97654.19
2023-03-21T02:31:24.534Z,97656.97
2023-03-21T02:34:00.136Z,97661.78
2023-03-21T02:36:52.162Z,97660.00
2023-03-21T02:39:32.145Z,97654.38
2023-03-21T02:42:11.640Z,97659.22
2023-03-21T02:44:47.389Z,97650.53
2023-03-21T02:47:35.124Z,97665.84
2023-03-21T02:50:09.513Z,97660.25
2023-03-21T02:52:39.817Z,97656.91
2023-03-21T02:55:15.670Z,97663.28
2023-03-21T02:58:06.933Z,97664.81
2023-03-21T03:00:44.664Z,97666.09
2023-03-21T03:03:24.876Z,97673.22
2023-03-21T03:06:01.276Z,97671.97
2023-03-21T03:08:53.044Z,97670.72
2023-03-21T03:11:41.836Z,97666.63
2023-03-21T03:14:49.930Z,97669.16
2023-03-21T03:17:38.986Z,97667.34
2023-03-21T03:20:29.088Z,97666.09
2023-03-21T03:22:59.962Z,97671.69
2023-03-21T03:25:49.621Z,97672.22
2023-03-21T03:28:27.067Z,97674.25
2023-03-21T03:31:08.031Z,97674.50
2023-03-21T03:33:47.832Z,97674.50
2023-03-21T03:36:33.604Z,97664.81
2023-03-21T03:39:11.468Z,97664.31
2023-03-21T03:44:39.101Z,97661.94
2023-03-21T03:47:22.857Z,97660.66
2023-03-21T03:50:06.479Z,97667.28
2023-03-21T03:52:53.638Z,97666.22
2023-03-21T03:55:27.334Z,97660.88
2023-03-21T03:57:59.081Z,97662.91
2023-03-21T04:00:28.237Z,97658.56
2023-03-21T04:02:55.779Z,97658.06
2023-03-21T04:05:25.220Z,97657.81
2023-03-21T04:07:54.026Z,97663.69
2023-03-21T04:10:28.820Z,97654.00
2023-03-21T04:12:56.016Z,97660.88
2023-03-21T04:15:41.585Z,97650.94
2023-03-21T04:18:14.148Z,97654.00
2023-03-21T04:20:42.024Z,97662.13
2023-03-21T04:23:09.198Z,97660.59
2023-03-21T04:25:42.274Z,97656.53
2023-03-21T04:28:15.941Z,97654.75
2023-03-21T04:31:03.802Z,97654.25
2023-03-21T04:33:43.191Z,97657.56
2023-03-21T04:36:18.805Z,97652.72
2023-03-21T04:38:48.692Z,97660.59
2023-03-21T04:41:16.846Z,97660.59
2023-03-21T04:43:44.786Z,97665.47
2023-03-21T04:46:12.240Z,97663.16
2023-03-21T04:48:39.385Z,97670.03
2023-03-21T04:51:07.529Z,97658.56
2023-03-21T04:53:37.744Z,97654.22
2023-03-21T04:56:07.040Z,97665.69
2023-03-21T04:58:34.569Z,97666.69
2023-03-21T05:01:03.055Z,97661.09
2023-03-21T05:03:34.947Z,97660.56
2023-03-21T05:06:02.030Z,97658.25
2023-03-21T05:08:28.913Z,97663.84
2023-03-21T05:10:55.915Z,97661.31
2023-03-21T05:13:29.528Z,97655.44
2023-03-21T05:15:56.785Z,97657.22
2023-03-21T05:18:25.171Z,97660.00
2023-03-21T05:21:04.396Z,97665.84
2023-03-21T05:23:32.084Z,97670.44
2023-03-21T05:25:59.466Z,97671.16
2023-03-21T05:28:40.211Z,97664.31
2023-03-21T05:31:09.033Z,97656.94
2023-03-21T05:33:36.346Z,97676.78
2023-03-21T05:36:03.518Z,97664.06
2023-03-21T05:38:33.550Z,97662.78
2023-03-21T05:41:00.768Z,97664.31
2023-03-21T05:43:28.878Z,97669.66
2023-03-21T05:45:56.094Z,97669.66
2023-03-21T05:48:23.883Z,97672.94
2023-03-21T05:51:05.285Z,97676.78
2023-03-21T05:53:32.278Z,97679.56
2023-03-21T05:55:59.083Z,97679.84
2023-03-21T05:58:47.684Z,97682.38
2023-03-21T06:01:15.011Z,97682.16
2023-03-21T06:03:48.212Z,97687.53
2023-03-21T06:06:22.418Z,97686.50
2023-03-21T06:08:54.024Z,97675.06
2023-03-21T06:11:30.886Z,97680.69
2023-03-21T06:14:18.410Z,97690.88
2023-03-21T06:16:49.730Z,97690.41
2023-03-21T06:19:16.996Z,97697.28
2023-03-21T06:22:00.434Z,97689.13
2023-03-21T06:24:28.066Z,97685.06
2023-03-21T06:26:55.033Z,97687.91
2023-03-21T06:29:22.809Z,97686.13
2023-03-21T06:31:51.083Z,97684.13
2023-03-21T06:34:19.179Z,97685.66
2023-03-21T06:36:47.133Z,97686.19
2023-03-21T06:39:16.313Z,97682.59
2023-03-21T06:41:46.106Z,97680.56
2023-03-21T06:44:13.372Z,97689.25
2023-03-21T06:46:49.597Z,97683.94
2023-03-21T06:49:20.368Z,97683.69
2023-03-21T06:51:47.420Z,97688.78
2023-03-21T06:54:19.076Z,97683.94
2023-03-21T06:57:13.721Z,97684.75
2023-03-21T06:59:42.149Z,97683.72
2023-03-21T07:02:13.809Z,97689.84
2023-03-21T07:04:46.896Z,97686.78
2023-03-21T07:07:19.009Z,97684.00
2023-03-21T07:09:46.211Z,97686.31
2023-03-21T07:12:13.120Z,97687.84
2023-03-21T07:15:01.378Z,97691.41
2023-03-21T07:17:28.694Z,97686.81
2023-03-21T07:19:57.357Z,97691.44
2023-03-21T07:22:26.455Z,97687.59
2023-03-21T07:25:04.382Z,97693.72
2023-03-21T07:27:40.791Z,97691.69
2023-03-21T07:30:09.408Z,97693.00
2023-03-21T07:32:38.264Z,97688.38
2023-03-21T07:35:09.240Z,97692.97
2023-03-21T07:37:37.905Z,97691.47
2023-03-21T07:40:15.429Z,97691.97
2023-03-21T07:42:42.812Z,97693.47
2023-03-21T07:45:20.711Z,97694.00
2023-03-21T07:47:49.812Z,97697.84
2023-03-21T07:50:16.949Z,97703.72
2023-03-21T07:52:45.636Z,97699.09
2023-03-21T07:55:12.547Z,97693.50
2023-03-21T07:57:40.969Z,97694.00
2023-03-21T08:00:08.858Z,97692.47
2023-03-21T08:02:42.515Z,97696.84
2023-03-21T08:05:11.678Z,97691.19
2023-03-21T08:07:38.871Z,97691.44
2023-03-21T08:10:10.221Z,97696.50
2023-03-21T08:12:37.482Z,97696.50
2023-03-21T08:15:04.753Z,97695.97
2023-03-21T08:17:31.674Z,97699.75
2023-03-21T08:19:58.573Z,97693.84
2023-03-21T08:22:25.721Z,97698.97
2023-03-21T08:24:52.933Z,97693.56
2023-03-21T08:27:20.943Z,97693.38
2023-03-21T08:29:47.802Z,97695.38
2023-03-21T08:32:18.479Z,97688.66
2023-03-21T08:34:45.723Z,97699.56
2023-03-21T08:37:12.675Z,97689.75
2023-03-21T08:39:40.632Z,97687.31
2023-03-21T08:42:08.149Z,97677.97
2023-03-21T08:44:35.019Z,97677.91
2023-03-21T08:47:02.390Z,97678.72
2023-03-21T08:49:29.285Z,97676.81
2023-03-21T08:51:57.063Z,97672.31
2023-03-21T08:54:25.389Z,97673.16
2023-03-21T08:56:52.329Z,97676.69
2023-03-21T08:59:19.814Z,97670.50
2023-03-21T09:01:48.727Z,97663.56
2023-03-21T09:04:15.708Z,97671.75
2023-03-21T09:06:48.039Z,97669.38
2023-03-21T09:09:16.026Z,97668.03
2023-03-21T09:11:43.016Z,97683.13
2023-03-21T09:14:10.104Z,97675.44
2023-03-21T09:16:39.310Z,97671.00
2023-03-21T09:19:09.200Z,97670.66
2023-03-21T09:21:36.952Z,97673.34
2023-03-21T09:24:06.213Z,97667.16
2023-03-21T09:26:33.533Z,97669.06
2023-03-21T09:29:03.914Z,97665.16
2023-03-21T09:31:31.193Z,97673.19
2023-03-21T09:33:58.510Z,97666.50
2023-03-21T09:36:27.422Z,97672.59
2023-03-21T09:38:57.595Z,97665.34
2023-03-21T09:41:36.455Z,97667.41
2023-03-21T09:44:33.485Z,97666.63
2023-03-21T09:47:10.468Z,97667.88
2023-03-21T09:49:44.808Z,97673.75
2023-03-21T09:52:22.750Z,97666.50
2023-03-21T09:54:52.762Z,97670.94
2023-03-21T09:57:27.430Z,97665.13
2023-03-21T09:59:56.599Z,97668.41
2023-03-21T10:02:47.306Z,97655.56
2023-03-21T10:05:24.062Z,97655.28
2023-03-21T10:08:07.429Z,97648.31
2023-03-21T10:11:15.531Z,97649.66
2023-03-21T10:13:53.594Z,97641.69
2023-03-21T10:16:27.708Z,97634.41
2023-03-21T10:18:55.910Z,97633.41
2023-03-21T10:21:56.664Z,97638.59
2023-03-21T10:24:20.126Z,97628.72
2023-03-21T10:26:48.238Z,97638.56
2023-03-21T10:29:17.439Z,97624.81
2023-03-21T10:31:46.993Z,97624.19
2023-03-21T10:34:20.277Z,97611.34
2023-03-21T10:36:47.870Z,97606.69
2023-03-21T10:39:23.264Z,97606.44
2023-03-21T10:41:50.166Z,97603.41
2023-03-21T10:44:18.776Z,97602.88
2023-03-21T10:46:57.704Z,97605.28
2023-03-21T10:49:26.706Z,97596.97
2023-03-21T10:51:58.113Z,97590.25
2023-03-21T10:54:36.829Z,97591.88
2023-03-21T10:57:08.407Z,97592.97
2023-03-21T10:59:58.215Z,97590.72
2023-03-21T11:02:30.525Z,97579.38
2023-03-21T11:05:05.013Z,97591.16
2023-03-21T11:07:32.442Z,97585.09
2023-03-21T11:10:01.063Z,97580.94
2023-03-21T11:12:38.387Z,97579.44
2023-03-21T11:15:27.966Z,97574.13
2023-03-21T11:17:55.456Z,97579.06
2023-03-21T11:20:23.113Z,97573.31
2023-03-21T11:22:55.611Z,97575.63
2023-03-21T11:25:34.077Z,97572.19
2023-03-21T11:28:07.287Z,97571.97
2023-03-21T11:30:34.313Z,97571.44
2023-03-21T11:33:03.827Z,97565.19
2023-03-21T11:35:37.766Z,97565.53
2023-03-21T11:38:07.264Z,97550.91
2023-03-21T11:40:36.619Z,97568.94
2023-03-21T11:43:28.488Z,97561.44
2023-03-21T11:46:04.653Z,97562.72
2023-03-21T11:48:50.114Z,97558.13
2023-03-21T11:51:49.749Z,97557.69
2023-03-21T11:54:20.010Z,97557.44
2023-03-21T11:57:01.013Z,97551.28
2023-03-21T11:59:31.036Z,97548.38
2023-03-21T12:02:04.434Z,97541.91
2023-03-21T12:04:46.697Z,97537.13
2023-03-21T12:07:27.424Z,97533.72
2023-03-21T12:09:57.912Z,97537.72
2023-03-21T12:12:36.544Z,97534.28
2023-03-21T12:15:49.475Z,97523.47
2023-03-21T12:18:35.374Z,97518.69
2023-03-21T12:21:09.799Z,97523.91
2023-03-21T12:23:49.303Z,97517.63
2023-03-21T12:26:27.290Z,97512.75
2023-03-21T12:29:22.106Z,97509.97
2023-03-21T12:32:17.213Z,97508.47
2023-03-21T12:35:15.056Z,97505.00
2023-03-21T12:38:24.677Z,97501.63
2023-03-21T12:41:12.008Z,97497.34
2023-03-21T12:44:04.524Z,97482.25
2023-03-21T12:46:46.944Z,97498.50
2023-03-21T12:49:30.769Z,97487.22
2023-03-21T12:52:22.084Z,97489.63
2023-03-21T12:54:58.478Z,97471.25
2023-03-21T12:57:56.484Z,97467.72
2023-03-21T13:00:33.368Z,97459.16
2023-03-21T13:03:08.767Z,97457.66
2023-03-21T13:05:50.641Z,97460.06
2023-03-21T13:08:31.489Z,97451.34
2023-03-21T13:11:00.270Z,97447.84
2023-03-21T13:13:35.561Z,97446.03
2023-03-21T13:16:30.482Z,97452.69
2023-03-21T13:19:22.164Z,97441.94
2023-03-21T13:22:01.741Z,97446.75
2023-03-21T13:25:06.324Z,97434.66
2023-03-21T13:27:43.121Z,97439.63
2023-03-21T13:30:29.635Z,97434.94
2023-03-21T13:33:14.522Z,97441.09
2023-03-21T13:35:46.382Z,97437.78
2023-03-21T13:38:22.549Z,97426.50
2023-03-21T13:41:06.194Z,97431.84
2023-03-21T13:43:45.713Z,97418.53
2023-03-21T13:46:26.567Z,97424.84
2023-03-21T13:48:58.861Z,97417.50
2023-03-21T13:51:48.934Z,97413.94
2023-03-21T13:54:35.035Z,97412.19
2023-03-21T13:57:07.014Z,97415.53
2023-03-21T13:59:45.435Z,97403.84
2023-03-21T14:02:12.869Z,97411.72
2023-03-21T14:04:53.903Z,97410.94
2023-03-21T14:07:44.918Z,97403.47
2023-03-21T14:10:22.611Z,97396.66
2023-03-21T14:12:50.717Z,97398.44
2023-03-21T14:15:25.098Z,97397.56
2023-03-21T14:18:01.603Z,97392.59
2023-03-21T14:20:39.350Z,97390.13
2023-03-21T14:23:07.215Z,97383.31
2023-03-21T14:25:46.814Z,97391.31
2023-03-21T14:28:33.038Z,97376.97
2023-03-21T14:31:02.151Z,97388.34
2023-03-21T14:33:57.786Z,97383.63
2023-03-21T14:36:29.972Z,97378.56
2023-03-21T14:39:16.002Z,97374.59
2023-03-21T14:41:54.098Z,97363.06
2023-03-21T14:44:28.278Z,97372.91
2023-03-21T14:47:08.410Z,97371.00
2023-03-21T14:49:38.807Z,97373.25
2023-03-21T14:52:15.075Z,97363.03
2023-03-21T14:54:47.441Z,97356.03
2023-03-21T14:57:20.085Z,97352.63
2023-03-21T14:59:53.643Z,97357.34
2023-03-21T15:02:26.918Z,97358.13
2023-03-21T15:04:58.121Z,97364.16
2023-03-21T15:07:32.616Z,97352.44
2023-03-21T15:10:05.250Z,97345.22
2023-03-21T15:12:34.735Z,97348.28
2023-03-21T15:15:03.621Z,97342.78
2023-03-21T15:17:31.361Z,97351.28
2023-03-21T15:19:58.241Z,97346.38
2023-03-21T15:22:39.442Z,97342.78
2023-03-21T15:25:13.349Z,97343.72
2023-03-21T15:27:42.762Z,97348.81
2023-03-21T15:30:22.717Z,97355.81
2023-03-21T15:32:49.832Z,97349.56
2023-03-21T15:35:21.622Z,97346.13
2023-03-21T15:37:58.563Z,97338.97
2023-03-21T15:40:35.918Z,97339.69
2023-03-21T15:43:07.707Z,97349.72
2023-03-21T15:45:56.919Z,97347.09
2023-03-21T15:48:29.451Z,97339.88
2023-03-21T15:51:23.735Z,97343.88
2023-03-21T15:53:55.310Z,97338.38
2023-03-21T15:56:25.251Z,97341.56
2023-03-21T15:58:55.780Z,97348.34
2023-03-21T16:01:26.581Z,97336.44
2023-03-21T16:04:13.894Z,97340.97
2023-03-21T16:09:42.852Z,97346.91
2023-03-21T16:12:13.080Z,97345.72
2023-03-21T16:14:40.354Z,97347.59
2023-03-21T16:17:28.436Z,97347.00
2023-03-21T16:19:55.456Z,97346.63
2023-03-21T16:22:22.493Z,97355.50
2023-03-21T16:24:49.905Z,97350.91
2023-03-21T16:27:19.018Z,97355.06
2023-03-21T16:29:46.212Z,97353.56
2023-03-21T16:32:16.879Z,97358.44
2023-03-21T16:34:44.750Z,97353.47
2023-03-21T16:37:12.995Z,97362.31
2023-03-21T16:39:39.842Z,97359.25
2023-03-21T16:42:07.322Z,97356.72
2023-03-21T16:44:35.874Z,97362.88
2023-03-21T16:47:03.187Z,97377.19
2023-03-21T16:49:30.635Z,97365.59
2023-03-21T16:51:57.858Z,97376.06
2023-03-21T16:54:25.953Z,97367.91
2023-03-21T16:56:56.361Z,97373.72
2023-03-21T16:59:33.002Z,97374.06
2023-03-21T17:02:00.101Z,97382.13
2023-03-21T17:04:27.152Z,97384.75
2023-03-21T17:06:55.220Z,97382.69
2023-03-21T17:09:26.523Z,97384.00
2023-03-21T17:11:53.631Z,97385.88
2023-03-21T17:14:24.079Z,97389.47
2023-03-21T17:16:51.082Z,97388.47
2023-03-21T17:19:26.557Z,97392.81
2023-03-21T17:21:55.369Z,97376.97
2023-03-21T17:24:24.049Z,97386.22
2023-03-21T17:26:51.728Z,97387.28
2023-03-21T17:29:18.559Z,97386.34
2023-03-21T17:31:47.603Z,97386.69
2023-03-21T17:34:16.027Z,97384.53
2023-03-21T17:36:45.269Z,97396.53
2023-03-21T17:39:19.096Z,97387.41
2023-03-21T17:41:47.613Z,97395.38
2023-03-21T17:44:17.642Z,97398.31
2023-03-21T17:46:44.971Z,97402.06
2023-03-21T17:49:15.545Z,97401.19
2023-03-21T17:51:43.859Z,97401.53
2023-03-21T17:54:10.646Z,97406.31
2023-03-21T17:56:37.757Z,97405.16
2023-03-21T17:59:09.069Z,97401.00
2023-03-21T18:01:36.484Z,97404.59
2023-03-21T18:04:08.131Z,97409.03
2023-03-21T18:06:37.582Z,97406.31
2023-03-21T18:09:11.402Z,97404.16
2023-03-21T18:11:39.632Z,97403.81
2023-03-21T18:14:15.749Z,97412.91
2023-03-21T18:16:45.118Z,97408.16
2023-03-21T18:19:14.472Z,97414.09
2023-03-21T18:21:45.509Z,97418.00
2023-03-21T18:24:13.808Z,97413.97
2023-03-21T18:26:41.345Z,97413.53
2023-03-21T18:32:06.252Z,97403.84
2023-03-21T18:34:38.920Z,97405.91
2023-03-21T18:37:08.416Z,97404.63
2023-03-21T18:39:35.788Z,97408.53
2023-03-21T18:42:05.408Z,97408.53
2023-03-21T18:44:39.014Z,97399.63
2023-03-21T18:47:08.753Z,97405.47
2023-03-21T18:52:30.197Z,97402.88
2023-03-21T18:54:58.302Z,97406.56
2023-03-21T18:57:36.437Z,97405.34
2023-03-21T19:00:13.175Z,97404.34
2023-03-21T19:02:48.330Z,97405.44
2023-03-21T19:05:18.077Z,97413.00
2023-03-21T19:07:48.356Z,97408.00
2023-03-21T19:10:21.090Z,97416.84
2023-03-21T19:12:51.505Z,97410.97
2023-03-21T19:15:21.597Z,97419.13
2023-03-21T19:20:37.591Z,97415.31
2023-03-21T19:23:06.474Z,97417.69
2023-03-21T19:25:33.327Z,97417.44
2023-03-21T19:28:01.005Z,97423.09
2023-03-21T19:30:27.959Z,97422.31
2023-03-21T19:32:55.564Z,97428.72
2023-03-21T19:35:23.507Z,97428.72
2023-03-21T19:37:51.564Z,97434.69
2023-03-21T19:40:20.209Z,97426.31
2023-03-21T19:42:47.829Z,97422.50
2023-03-21T19:45:15.793Z,97426.09
2023-03-21T19:47:42.713Z,97419.44
2023-03-21T19:52:57.314Z,97419.97
2023-03-21T19:55:24.371Z,97422.34
2023-03-21T19:57:53.816Z,97419.50
2023-03-21T20:00:21.343Z,97423.63
2023-03-21T20:02:48.454Z,97422.41
2023-03-21T20:05:17.483Z,97418.38
2023-03-21T20:07:45.083Z,97412.59
2023-03-21T20:10:12.126Z,97409.22
2023-03-21T20:12:39.781Z,97413.81
2023-03-21T20:15:17.304Z,97404.03
2023-03-21T20:17:49.626Z,97405.03
2023-03-21T20:20:18.596Z,97410.44
2023-03-21T20:23:06.091Z,97413.81
2023-03-21T20:25:35.657Z,97423.31
2023-03-21T20:28:25.950Z,97416.69
2023-03-21T20:30:57.075Z,97417.53
2023-03-21T20:33:28.297Z,97416.53
2023-03-21T20:38:47.006Z,97415.91
2023-03-21T20:41:14.195Z,97421.03
2023-03-21T20:46:28.830Z,97425.06
2023-03-21T20:48:55.953Z,97415.00
2023-03-21T20:54:11.303Z,97421.56
2023-03-21T20:56:39.675Z,97416.16
2023-03-21T20:59:18.736Z,97405.13
2023-03-21T21:01:51.279Z,97407.47
2023-03-21T21:04:20.567Z,97415.69
2023-03-21T21:06:48.439Z,97408.31
2023-03-21T21:09:16.853Z,97409.59
2023-03-21T21:14:33.601Z,97397.03
2023-03-21T21:17:22.518Z,97416.53
2023-03-21T21:19:50.136Z,97415.31
2023-03-21T21:22:17.684Z,97400.69
2023-03-21T21:24:45.008Z,97401.75
2023-03-21T21:27:13.999Z,97401.75
2023-03-21T21:29:43.570Z,97402.28
2023-03-21T21:32:11.496Z,97408.47
2023-03-21T21:34:38.568Z,97406.94
2023-03-21T21:37:05.967Z,97414.09
2023-03-21T21:39:35.584Z,97404.13
2023-03-21T21:42:03.758Z,97400.31
2023-03-21T21:44:31.350Z,97395.97
2023-03-21T21:46:59.839Z,97390.66
2023-03-21T21:49:29.446Z,97382.78
2023-03-21T21:51:56.462Z,97386.44
2023-03-21T21:54:23.433Z,97383.16
2023-03-21T21:56:54.317Z,97397.84
2023-03-21T21:59:22.385Z,97402.25
2023-03-21T22:01:51.621Z,97409.47
2023-03-21T22:04:27.973Z,97402.09
2023-03-21T22:06:55.871Z,97405.47
2023-03-21T22:09:23.185Z,97400.41
2023-03-21T22:11:51.144Z,97392.22
2023-03-21T22:14:18.093Z,97398.91
2023-03-21T22:16:46.963Z,97394.34
2023-03-21T22:19:14.891Z,97389.75
2023-03-21T22:21:41.738Z,97381.63
2023-03-21T22:24:08.838Z,97386.25
2023-03-21T22:26:36.013Z,97390.13
2023-03-21T22:29:02.969Z,97386.38
2023-03-21T22:31:29.883Z,97392.59
2023-03-21T22:33:56.836Z,97384.44
2023-03-21T22:36:24.026Z,97383.97
2023-03-21T22:38:50.970Z,97386.00
2023-03-21T22:41:17.812Z,97390.09
2023-03-21T22:43:44.671Z,97393.22
2023-03-21T22:46:12.140Z,97388.56
2023-03-21T22:48:39.065Z,97403.69
2023-03-21T22:51:06.230Z,97393.25
2023-03-21T22:53:33.081Z,97389.47
2023-03-21T22:56:00.012Z,97394.81
2023-03-21T22:58:27.850Z,97390.75
2023-03-21T23:01:00.982Z,97386.69
2023-03-21T23:03:28.308Z,97390.75
2023-03-21T23:05:59.350Z,97396.38
2023-03-21T23:08:27.368Z,97402.00
2023-03-21T23:10:54.535Z,97402.00
2023-03-21T23:13:23.944Z,97396.38
2023-03-21T23:15:52.832Z,97401.00
2023-03-21T23:18:19.916Z,97395.59
2023-03-21T23:20:49.771Z,97388.69
2023-03-21T23:23:16.813Z,97387.69
2023-03-21T23:25:43.801Z,97395.59
2023-03-21T23:28:10.629Z,97382.09
2023-03-21T23:30:39.261Z,97379.03
2023-03-21T23:33:06.240Z,97389.03
2023-03-21T23:35:36.042Z,97379.38
2023-03-21T23:38:03.274Z,97391.41
2023-03-21T23:40:31.007Z,97388.13
2023-03-21T23:42:59.761Z,97388.44
2023-03-21T23:45:26.973Z,97386.47
2023-03-21T23:47:53.859Z,97378.84
2023-03-21T23:50:20.844Z,97374.28
2023-03-21T23:52:49.496Z,97361.56
2023-03-21T23:55:16.503Z,97354.97
2023-03-21T23:57:44.038Z,97352.19
